Wickenby Aerodrome

EGNW · Anglia, Wielka Brytania

Historia METAR EGNW · Wickenby Aerodrome

Poniżej widzisz METAR-y z ostatnich kilku dni. Wybierz rok, aby przeglądać starsze METAR-y, począwszy od roku 2007.

4 grudnia 2022

Czas Kod Pogoda Temp. Widoczność Sufit Wiatr METAR/SPECI
01:50
M
4 °C 10 km+ 2.600 ft 020° 020° 5 kt METAR EGXW 040150Z AUTO 02005KT 9999 FEW017/// SCT022/// BKN026/// 04/04 Q1019 RERA
00:50
V
4 °C 10 km+ - 070° 070° 3 kt METAR EGXW 040050Z AUTO 07003KT 9999 SCT018/// SCT024/// 04/03 Q1019 RERA

3 grudnia 2022

Czas Kod Pogoda Temp. Widoczność Sufit Wiatr METAR/SPECI
23:50
V
4 °C 10 km+ 3.300 ft 060° 060° 8 kt METAR EGXW 032350Z AUTO 06008KT 9999 FEW015/// BKN033/// 04/03 Q1019 RERA
22:50
V
4 °C 10 km+ 4.800 ft 030° 030° 7 kt METAR EGXW 032250Z AUTO 03007KT 9999 FEW024/// SCT038/// BKN048/// 04/04 Q1019 RERA
21:50
M
5 °C 10 km+ 2.400 ft 060° 060° 9 kt METAR EGXW 032150Z AUTO 06009KT 9999 -RA BKN024/// BKN030/// 05/04 Q1020
20:50
V
5 °C 10 km+ 4.100 ft 040° 040° 8 kt METAR EGXW 032050Z AUTO 04008KT 9999 FEW031/// BKN041/// BKN050/// 05/04 Q1020 RERA
19:50
V
5 °C 10 km+ 5.000 ft 060° 060° 7 kt METAR EGXW 031950Z AUTO 06007KT 9999 FEW030/// BKN050/// 05/04 Q1020 REDZ
18:50
M
5 °C 10 km+ 2.500 ft 060° 060° 9 kt METAR EGXW 031850Z AUTO 06009KT 9999 -RADZ FEW017/// BKN025/// 05/04 Q1020
17:50
M
5 °C 10 km+ 2.400 ft 050° 050° 10 kt METAR EGXW 031750Z AUTO 05010KT 9999 -RA FEW020/// BKN024/// 05/05 Q1021
16:50
V
6 °C 10 km+ 3.100 ft 070° 070° 8 kt METAR EGXW 031650Z AUTO 07008KT 9999 FEW027/// BKN031/// 06/04 Q1021 REDZ
15:50
V
6 °C 10 km+ 3.100 ft 050° 050° 11 kt METAR EGXW 031550Z AUTO 05011KT 9999 BKN031/// SCT046/// 06/05 Q1021 REDZ
14:50
M
7 °C 10 km+ 2.400 ft 050° 050° 10 kt METAR EGXW 031450Z AUTO 05010KT 9999 FEW013/// BKN024/// 07/05 Q1021 REDZ
13:50
V
7 °C 10 km+ 3.300 ft 050° 050° 11 kt METAR EGXW 031350Z AUTO 05011KT 9999 FEW016/// BKN033/// 07/05 Q1022 RERA
12:50
V
7 °C 10 km+ 3.600 ft 050° 050° 12 kt METAR EGXW 031250Z AUTO 05012KT 9999 FEW025/// BKN036/// 07/05 Q1022
11:50
V
7 °C 10 km+ 3.700 ft 040° 040° 10 kt METAR EGXW 031150Z AUTO 04010KT 9999 FEW016/// SCT024/// BKN037/// 07/05 Q1023 RERA
10:50
V
6 °C 10 km+ 3.800 ft 030° 030° 9 kt METAR EGXW 031050Z AUTO 03009KT 9999 BKN038/// SCT046/// 06/04 Q1024 RERA
09:50
V
5 °C 10 km+ 3.500 ft 030° 030° 7 kt METAR EGXW 030950Z AUTO 03007KT 9999 -RA FEW027/// BKN035/// 05/03 Q1024
08:50
V
4 °C 10 km+ 3.600 ft 030° 030° 7 kt METAR EGXW 030850Z AUTO 03007KT 9999 FEW027/// BKN036/// 04/03 Q1025
07:50
V
3 °C 10 km+ - 030° 030° 8 kt METAR EGXW 030750Z AUTO 03008KT 9999 FEW035/// 03/02 Q1025
06:50
V
5 °C 10 km+ 3.400 ft 030° 030° 6 kt METAR EGXW 030650Z AUTO 03006KT 9999 BKN034/// SCT050/// 05/04 Q1025
05:50
V
4 °C 10 km+ - 020° 020° 7 kt METAR EGXW 030550Z AUTO 02007KT 9999 FEW027/// 04/03 Q1025
04:50
V
5 °C 10 km+ - 030° 030° 7 kt METAR EGXW 030450Z AUTO 03007KT 9999 SCT020/// SCT060/// 05/04 Q1026 RERA
03:50
V
5 °C 10 km+ 3.600 ft 030° 030° 7 kt METAR EGXW 030350Z AUTO 03007KT 9999 FEW028/// BKN036/// 05/04 Q1027 REDZ
02:50
V
5 °C 10 km+ - 030° 030° 7 kt METAR EGXW 030250Z AUTO 03007KT 9999 FEW036/// SCT050/// 05/04 Q1027 RERA
01:50
M
5 °C 10 km+ 2.100 ft 030° 030° 9 kt METAR EGXW 030150Z AUTO 03009KT 9999 BKN021/// SCT038/// 05/04 Q1027 REDZ
00:50
V
6 °C 10 km+ 3.900 ft 040° 040° 7 kt METAR EGXW 030050Z AUTO 04007KT 9999 FEW034/// BKN039/// 06/04 Q1027

2 grudnia 2022

Czas Kod Pogoda Temp. Widoczność Sufit Wiatr METAR/SPECI
23:50
V
5 °C 10 km+ 4.500 ft 050° 050° 7 kt METAR EGXW 022350Z AUTO 05007KT 9999 SCT039/// BKN045/// 05/04 Q1027
22:50
V
5 °C 10 km+ 4.000 ft 030° 030° 7 kt METAR EGXW 022250Z AUTO 03007KT 9999 FEW034/// BKN040/// 05/04 Q1027
21:50
V
5 °C 10 km+ 4.600 ft 040° 040° 8 kt METAR EGXW 022150Z AUTO 04008KT 9999 FEW026/// BKN046/// 05/04 Q1027 REDZ
20:50
V
4 °C 10 km+ - 020° 020° 7 kt METAR EGXW 022050Z AUTO 02007KT 9999 FEW036/// SCT043/// 04/03 Q1027
19:50
V
4 °C 10 km+ - 020° 020° 6 kt METAR EGXW 021950Z AUTO 02006KT 9999 FEW024/// SCT046/// 04/03 Q1027 REDZ
18:50
V
5 °C 10 km+ 3.100 ft 030° 030° 6 kt METAR EGXW 021850Z AUTO 03006KT 9999 FEW023/// BKN031/// BKN047/// 05/04 Q1027 RERA
17:50
V
5 °C 10 km+ 4.800 ft 030° 030° 6 kt METAR EGXW 021750Z AUTO 03006KT 9999 FEW041/// BKN048/// 05/04 Q1027
16:50
M
5 °C 7 km - 030° 030° 6 kt METAR EGXW 021650Z 03006KT 7000 BR FEW044 05/04 Q1027 TEMPO -SHRA SCT010 RMK WHT TEMPO GRN
16:20
M
6 °C 7 km - 010° 010° 6 kt METAR EGXW 021620Z 01006KT 7000 BR FEW044 06/05 Q1027 TEMPO -SHRA SCT010 RMK WHT TEMPO GRN
15:50
I
6 °C 3,8 km - 350° 350° 5 kt METAR EGXW 021550Z 35005KT 3800 BR FEW010 06/05 Q1027 TEMPO -SHRA SCT010 RMK GRN TEMPO GRN
15:20
M
6 °C 5 km - 010° 010° 5 kt METAR EGXW 021520Z 01005KT 5000 BR FEW010 SCT020 06/06 Q1026 TEMPO -SHRA SCT010 RMK WHT TEMPO GRN
14:50
I
7 °C 2,8 km 4.800 ft 010° 010° 6 kt METAR EGXW 021450Z 01006KT 2800 -SHRA SCT010 BKN048 07/06 Q1026 BECMG 4000 RMK YLO1 BECMG GRN
14:20
I
6 °C 1,8 km 13.000 ft 340° 340° 6 kt METAR EGXW 021420Z 34006KT 1800 BR FEW002 SCT025 BKN130 06/06 Q1026 BECMG 4000 RMK YLO2 BECMG GRN
13:50
L
6 °C 2 km 200 ft 350° 350° 6 kt METAR EGXW 021350Z 35006KT 2000 BR BKN002 BKN018 06/06 Q1026 BECMG 4000 FEW002 RMK AMB BECMG GRN
13:20
L
6 °C 1,8 km 200 ft 340° 340° 6 kt METAR EGXW 021320Z 34006KT 1800 BR BKN002 BKN045 06/06 Q1026 BECMG 4000 FEW002 RMK AMB BECMG GRN
13:04
L
6 °C 1,4 km 4.500 ft 340° 340° 6 kt METAR EGXW 021304Z 34006KT 1400 BR SCT002 BKN045 06/06 Q1026 BECMG 4000 FEW002 RMK AMB BECMG GRN
12:50
I
6 °C 1,8 km 3.300 ft 340° 340° 5 kt METAR EGXW 021250Z 34005KT 1800 BR FEW001 BKN033 BKN042 06/06 Q1026 BECMG 4000 RMK YLO2 BECMG GRN
12:39
I
6 °C 2,8 km 3.300 ft 350° 350° 6 kt METAR EGXW 021239Z 35006KT 2800 BR FEW001 BKN033 06/06 Q1027 BECMG 4000 RMK YLO1 BECMG GRN
12:20
I
6 °C 1,8 km 3.600 ft 010° 010° 6 kt METAR EGXW 021220Z 01006KT 1800 -RA SCT001 BKN036 06/06 Q1027 TEMPO SCT002 RMK RED TEMPO AMB
11:50
L
5 °C 1 km 100 ft 330° 330° 6 kt METAR EGXW 021150Z 33006KT 1000 BR BKN001 BKN040 05/05 Q1027 TEMPO BKN002 RMK RED TEMPO AMB
11:20
L
5 °C 150 m - 330° 330° 7 kt METAR EGXW 021120Z 33007KT 0150 FG OVC000 05/05 Q1027 TEMPO 0800 OVC002 RMK RED TEMPO AMB
10:50
L
5 °C 350 m 100 ft 340° 340° 6 kt METAR EGXW 021050Z 34006KT 0350 FG BKN001 05/05 Q1027 TEMPO BKN002 RMK RED TEMPO AMB
10:20
L
4 °C 300 m 100 ft 330° 330° 6 kt METAR EGXW 021020Z 33006KT 0300 FG BKN001 04/04 Q1027 TEMPO 1600 BR BKN003 RMK RED TEMPO YLO2
10:02
L
4 °C 400 m 100 ft 330° 330° 5 kt METAR EGXW 021002Z 33005KT 0400 FG BKN001 04/04 Q1027 TEMPO 1600 BR BKN003 RMK RED TEMPO YLO2
09:50
L
4 °C 1,1 km 4.000 ft 340° 340° 4 kt METAR EGXW 020950Z 34004KT 1100 BR SCT001 BKN040 04/04 Q1027 TEMPO 1600 SCT003 RMK RED TEMPO YLO2
09:30
L
4 °C 1,8 km 100 ft 330° 330° 5 kt METAR EGXW 020930Z 33005KT 1800 1000W BR BKN001 BKN038 04/04 Q1027 TEMPO 2500 BKN003 RMK RED TEMPO YLO2
09:20
I
4 °C 2,4 km 3.800 ft 350° 350° 4 kt METAR EGXW 020920Z 35004KT 2400 BR SCT001 BKN038 04/04 Q1027 TEMPO SCT003 RMK RED TEMPO YLO2
09:05
L
4 °C 2,8 km 100 ft 360° 360° 4 kt METAR EGXW 020905Z 36004KT 2800 BR BKN001 BKN033 04/04 Q1027 TEMPO OVC002 RMK RED TEMPO AMB
08:50
L
3 °C 1,1 km 100 ft 360° 360° 4 kt METAR EGXW 020850Z 36004KT 1100 BR BKN001 03/03 Q1027 TEMPO 1600 OVC002 RMK RED TEMPO AMB
08:20
L
3 °C 200 m 100 ft 340° 340° 4 kt METAR EGXW 020820Z 34004KT 0200 FG BKN001 03/03 Q1027 TEMPO 1500 BR OVC002 RMK RED TEMPO AMB
07:50
L
3 °C 350 m - 330° 330° 4 kt METAR EGXW 020750Z 33004KT 0350 FG OVC000 03/03 Q1027 TEMPO 1500 BR OVC002 RMK RED TEMPO AMB
07:20
L
3 °C 200 m - 350° 350° 4 kt METAR EGXW 020720Z 35004KT 0200 FG VV/// 03/03 Q1027 TEMPO 1500 BR OVC002 RMK RED TEMPO AMB
07:17
L
3 °C 200 m 100 ft 350° 350° 5 kt SPECI EGXW 020717Z 35005KT 0200 FG OVC001 03/03 Q1027 TEMPO 1500 BR RMK RED TEMPO RED
06:50
L
3 °C 1,5 km 100 ft 340° 340° 4 kt METAR EGXW 020650Z 34004KT 1500 BR OVC001 03/03 Q1027 TEMPO 0500 FG RMK RED TEMPO RED
05:50
L
3 °C 300 m - 360° 360° 3 kt METAR EGXW 020550Z 36003KT 0300 FG VV/// 03/03 Q1027 RMK RED
04:50
L
3 °C 150 m - 340° 340° 5 kt METAR EGXW 020450Z AUTO 34005KT 0150 FG VV/// 03/03 Q1027
03:50
L
3 °C 100 m - 360° 360° 3 kt METAR EGXW 020350Z AUTO 36003KT 0100 FG VV/// 03/03 Q1027
02:50
L
3 °C 100 m - 320° 320° 2 kt METAR EGXW 020250Z AUTO 32002KT 0100 FG VV/// 03/03 Q1028
01:50
L
3 °C 100 m - 300° 300° 3 kt METAR EGXW 020150Z AUTO 30003KT 0100 FG VV/// 03/03 Q1028
00:50
L
3 °C 100 m - 050° 050° 1 kt METAR EGXW 020050Z AUTO 05001KT 0100 FG VV/// 03/03 Q1028

1 grudnia 2022

Czas Kod Pogoda Temp. Widoczność Sufit Wiatr METAR/SPECI
23:50
L
3 °C 100 m - 290° 290° 4 kt METAR EGXW 012350Z AUTO 29004KT 0100 FG VV/// 03/03 Q1028
22:50
L
3 °C 100 m - 290° 290° 1 kt METAR EGXW 012250Z AUTO 29001KT 0100 FG VV/// 03/03 Q1029
21:50
L
3 °C 50 m - 250° 250° 1 kt METAR EGXW 012150Z AUTO 25001KT 0050 FG VV/// 03/03 Q1029
20:50
L
3 °C 100 m - 210° 210° 3 kt METAR EGXW 012050Z 21003KT 0100 FG VV/// 03/03 Q1029 RMK RED
19:50
L
4 °C 100 m - 150° 150° 3 kt METAR EGXW 011950Z 15003KT 0100 FG VV/// 04/03 Q1029 RED
19:21
L
4 °C 100 m - 210° 210° 3 kt METAR EGXW 011921Z 21003KT 0100 FG VV/// 04/03 Q1029 NOSIG RMK RED RED
18:50
L
3 °C 100 m - 260° 260° 3 kt METAR EGXW 011850Z 26003KT 0100 FG VV/// 03/03 Q1029 NOSIG RMK RED RED
18:20
L
4 °C 200 m - Var 000° 0 kt METAR EGXW 011820Z 00000KT 0200 FG VV/// 04/04 Q1029 NOSIG RMK RED RED
17:50
L
4 °C 300 m - 190° 190° 3 kt METAR EGXW 011750Z 19003KT 0300 FG VV/// 04/04 Q1029 NOSIG RMK RED RED
17:31
L
4 °C 500 m 100 ft 250° 250° 1 kt METAR EGXW 011731Z 25001KT 0500 FG OVC001 04/04 Q1029 NOSIG RMK RED RED
17:20
L
4 °C 1 km 100 ft 220° 220° 3 kt METAR EGXW 011720Z 22003KT 1000 BR OVC001 04/04 Q1029 BECMG 0300 FG RMK RED BECMG RED
16:50
L
4 °C 2 km 200 ft 240° 240° 3 kt METAR EGXW 011650Z 24003KT 2000 BR OVC002 04/04 Q1029 NOSIG RMK AMB AMB
16:20
L
4 °C 3 km 200 ft 220° 220° 3 kt METAR EGXW 011620Z 22003KT 3000 BR OVC002 04/04 Q1029 TEMPO 2000 BR RMK AMB TEMPO AMB
15:50
L
5 °C 3,5 km 400 ft 210° 210° 3 kt METAR EGXW 011550Z 21003KT 3500 BR OVC004 05/04 Q1029 NOSIG RMK YLO2 YLO2
15:20
L
5 °C 3,7 km 400 ft 240° 240° 3 kt METAR EGXW 011520Z 24003KT 3700 HZ OVC004 05/04 Q1029 BECMG 3000 BR RMK YLO2 BECMG YLO2
14:50
L
5 °C 3,7 km 400 ft 220° 220° 3 kt METAR EGXW 011450Z 22003KT 3700 HZ OVC004 05/04 Q1029 BECMG 3000 BR RMK YLO2 BECMG YLO2
14:20
I
5 °C 4,5 km 500 ft 230° 230° 3 kt METAR EGXW 011420Z 23003KT 4500 HZ OVC005 05/04 Q1029 NOSIG RMK YLO1 YLO1
13:50
I
5 °C 4 km 500 ft 210° 210° 2 kt METAR EGXW 011350Z 21002KT 4000 HZ OVC005 05/04 Q1029 TEMPO 5000 RMK YLO1 TEMPO YLO1
13:20
I
6 °C 4,5 km 500 ft 240° 240° 2 kt METAR EGXW 011320Z 24002KT 4500 HZ OVC005 06/04 Q1029 TEMPO 5000 RMK YLO1 TEMPO YLO1
12:50
I
6 °C 5 km 500 ft 260° 260° 3 kt METAR EGXW 011250Z 26003KT 5000 HZ OVC005 06/04 Q1029 TEMPO 4000 RMK YLO1 TEMPO YLO1
12:21
I
6 °C 4,2 km 500 ft 200° 200° 4 kt METAR EGXW 011221Z 20004KT 4200 HZ BKN005 BKN045 06/04 Q1029 TEMPO 5000 RMK YLO1 TEMPO YLO1
11:50
I
6 °C 5 km 500 ft 230° 230° 4 kt METAR EGXW 011150Z 23004KT 5000 HZ OVC005 06/04 Q1029 TEMPO 8000 HZ RMK YLO1 TEMPO YLO1
11:20
I
6 °C 4 km 500 ft 230° 230° 3 kt METAR EGXW 011120Z 23003KT 4000 BR OVC005 06/05 Q1029 TEMPO 5000 BR RMK YLO1 TEMPO YLO1
10:50
L
5 °C 3,4 km 400 ft 190° 190° 2 kt METAR EGXW 011050Z 19002KT 3400 HZ OVC004 05/04 Q1030 TEMPO 4500 RMK YLO2 TEMPO YLO2
10:20
L
5 °C 3 km 400 ft 200° 200° 3 kt METAR EGXW 011020Z 20003KT 3000 HZ OVC004 05/05 Q1030 TEMPO 4500 RMK YLO2 TEMPO YLO2
09:50
L
5 °C 3,4 km 400 ft 220° 220° 2 kt METAR EGXW 010950Z 22002KT 3400 BR OVC004 05/04 Q1030 TEMPO 4500 RMK YLO2 TEMPO YLO2

My i strony trzecie śledzimy Twoje zachowanie internetowe na naszej stronie za pomocą plików cookie. Jeśli kontynuujesz, zakładamy, że zgadzasz się z naszymi polityka plików cookie.